createdAt,value
2019-03-26T00:02:30.787Z,2.47
2019-03-26T00:05:10.148Z,2.52
2019-03-26T00:07:45.493Z,2.05
2019-03-26T00:10:25.008Z,2.67
2019-03-26T00:13:02.213Z,2.30
2019-03-26T00:15:40.258Z,2.02
2019-03-26T00:18:15.491Z,2.62
2019-03-26T00:20:50.734Z,2.30
2019-03-26T00:23:26.693Z,2.33
2019-03-26T00:26:02.299Z,2.05
2019-03-26T00:28:37.604Z,1.85
2019-03-26T00:31:16.815Z,2.87
2019-03-26T00:33:56.269Z,1.70
2019-03-26T00:36:31.521Z,2.50
2019-03-26T00:39:09.720Z,2.12
2019-03-26T00:41:47.768Z,2.30
2019-03-26T00:44:25.872Z,2.67
2019-03-26T00:47:01.214Z,2.15
2019-03-26T00:49:39.281Z,2.15
2019-03-26T00:52:15.773Z,2.15
2019-03-26T00:54:54.016Z,1.80
2019-03-26T00:57:31.992Z,2.40
2019-03-26T01:00:08.196Z,1.67
2019-03-26T01:02:46.072Z,2.60
2019-03-26T01:05:24.119Z,1.57
2019-03-26T01:07:59.363Z,1.77
2019-03-26T01:10:34.656Z,1.85
2019-03-26T01:13:12.792Z,1.70
2019-03-26T01:15:48.018Z,1.90
2019-03-26T01:18:26.417Z,1.82
2019-03-26T01:21:01.699Z,1.67
2019-03-26T01:23:39.701Z,1.70
2019-03-26T01:26:14.996Z,1.42
2019-03-26T01:28:52.809Z,2.10
2019-03-26T01:31:30.756Z,1.67
2019-03-26T01:34:08.765Z,1.85
2019-03-26T01:36:46.912Z,1.40
2019-03-26T01:39:24.901Z,1.57
2019-03-26T01:42:02.945Z,2.10
2019-03-26T01:44:40.932Z,1.22
2019-03-26T01:47:19.015Z,1.45
2019-03-26T01:49:57.132Z,1.67
2019-03-26T01:52:35.196Z,1.30
2019-03-26T01:55:13.346Z,1.50
2019-03-26T01:57:51.442Z,1.45
2019-03-26T02:00:29.496Z,1.30
2019-03-26T02:03:04.717Z,1.65
2019-03-26T02:05:43.051Z,1.40
2019-03-26T02:08:21.382Z,1.32
2019-03-26T02:10:59.400Z,1.30
2019-03-26T02:13:39.287Z,1.25
2019-03-26T02:16:17.355Z,1.50
2019-03-26T02:18:55.404Z,1.92
2019-03-26T02:21:33.583Z,1.75
2019-03-26T02:24:11.725Z,2.30
2019-03-26T02:26:49.676Z,2.12
2019-03-26T02:29:24.952Z,1.50
2019-03-26T02:32:02.838Z,1.70
2019-03-26T02:34:41.506Z,1.52
2019-03-26T02:37:20.422Z,1.50
2019-03-26T02:39:58.747Z,3.08
2019-03-26T02:42:36.752Z,2.70
2019-03-26T02:45:15.331Z,3.62
2019-03-26T02:47:53.744Z,1.60
2019-03-26T02:50:32.011Z,1.20
2019-03-26T02:53:10.196Z,2.75
2019-03-26T02:55:48.683Z,1.80
2019-03-26T02:58:26.782Z,1.90
2019-03-26T03:01:05.251Z,0.93
2019-03-26T03:03:43.308Z,1.25
2019-03-26T03:06:21.283Z,1.30
2019-03-26T03:08:59.315Z,1.00
2019-03-26T03:11:37.634Z,1.20
2019-03-26T03:14:15.601Z,1.60
2019-03-26T03:16:53.970Z,1.82
2019-03-26T03:19:32.067Z,1.57
2019-03-26T03:22:10.090Z,0.90
2019-03-26T03:24:48.447Z,0.95
2019-03-26T03:27:26.662Z,0.80
2019-03-26T03:30:04.692Z,1.12
2019-03-26T03:32:41.073Z,1.32
2019-03-26T03:35:19.281Z,1.07
2019-03-26T03:37:54.650Z,1.00
2019-03-26T03:40:33.039Z,0.90
2019-03-26T03:43:11.285Z,0.90
2019-03-26T03:45:46.444Z,0.90
2019-03-26T03:48:24.746Z,1.00
2019-03-26T03:51:03.817Z,0.80
2019-03-26T03:53:42.188Z,1.00
2019-03-26T03:56:21.555Z,0.93
2019-03-26T03:58:56.732Z,0.90
2019-03-26T04:01:31.890Z,0.80
2019-03-26T04:04:09.893Z,0.88
2019-03-26T04:06:47.892Z,1.07
2019-03-26T04:09:23.375Z,1.00
2019-03-26T04:11:58.489Z,1.05
2019-03-26T04:14:36.389Z,1.20
2019-03-26T04:17:14.383Z,0.80
2019-03-26T04:19:52.570Z,0.80
2019-03-26T04:22:28.095Z,2.20
2019-03-26T04:25:06.351Z,0.85
2019-03-26T04:27:44.272Z,1.17
2019-03-26T04:30:27.667Z,1.00
2019-03-26T04:33:05.719Z,1.20
2019-03-26T04:35:40.970Z,1.17
2019-03-26T04:38:18.846Z,1.00
2019-03-26T04:40:56.946Z,1.07
2019-03-26T04:43:32.104Z,1.10
2019-03-26T04:46:10.407Z,1.30
2019-03-26T04:48:48.416Z,1.30
2019-03-26T04:51:26.564Z,1.52
2019-03-26T04:54:04.768Z,0.90
2019-03-26T04:56:43.154Z,0.82
2019-03-26T04:59:21.132Z,1.30
2019-03-26T05:01:56.720Z,1.00
2019-03-26T05:04:31.867Z,1.30
2019-03-26T05:07:11.455Z,0.95
2019-03-26T05:09:47.299Z,0.90
2019-03-26T05:12:25.253Z,1.00
2019-03-26T05:15:03.150Z,1.12
2019-03-26T05:17:42.641Z,1.40
2019-03-26T05:20:20.647Z,1.45
2019-03-26T05:22:58.674Z,1.17
2019-03-26T05:25:36.639Z,1.40
2019-03-26T05:28:14.897Z,1.20
2019-03-26T05:30:55.328Z,1.30
2019-03-26T05:33:33.339Z,1.40
2019-03-26T05:36:11.274Z,1.70
2019-03-26T05:38:49.624Z,1.15
2019-03-26T05:41:27.604Z,1.45
2019-03-26T05:44:05.650Z,1.72
2019-03-26T05:46:43.794Z,1.72
2019-03-26T05:49:21.984Z,1.50
2019-03-26T05:52:00.201Z,1.75
2019-03-26T05:54:38.389Z,2.85
2019-03-26T05:57:16.467Z,1.47
2019-03-26T05:59:54.687Z,3.67
2019-03-26T06:02:32.817Z,1.50
2019-03-26T06:05:11.390Z,1.60
2019-03-26T06:07:49.436Z,1.67
2019-03-26T06:10:27.826Z,1.50
2019-03-26T06:13:06.397Z,1.80
2019-03-26T06:15:44.781Z,1.30
2019-03-26T06:18:22.985Z,1.42
2019-03-26T06:21:01.162Z,1.60
2019-03-26T06:23:39.458Z,1.17
2019-03-26T06:26:17.584Z,1.17
2019-03-26T06:28:53.507Z,2.72
2019-03-26T06:31:31.527Z,1.20
2019-03-26T06:34:10.625Z,1.52
2019-03-26T06:36:50.009Z,1.12
2019-03-26T06:39:28.034Z,1.30
2019-03-26T06:42:06.040Z,1.40
2019-03-26T06:44:44.072Z,1.22
2019-03-26T06:47:19.522Z,1.40
2019-03-26T06:49:57.741Z,2.40
2019-03-26T06:52:32.965Z,1.45
2019-03-26T06:55:08.190Z,1.10
2019-03-26T06:57:46.463Z,1.40
2019-03-26T07:00:22.624Z,1.57
2019-03-26T07:03:01.048Z,1.42
2019-03-26T07:05:39.062Z,1.22
2019-03-26T07:08:17.325Z,1.27
2019-03-26T07:10:55.543Z,1.27
2019-03-26T07:13:33.637Z,1.30
2019-03-26T07:16:14.253Z,1.47
2019-03-26T07:18:52.360Z,1.55
2019-03-26T07:21:30.313Z,1.50
2019-03-26T07:24:08.557Z,1.32
2019-03-26T07:26:46.482Z,1.50
2019-03-26T07:29:21.722Z,1.20
2019-03-26T07:31:59.557Z,1.40
2019-03-26T07:34:37.649Z,1.50
2019-03-26T07:37:12.846Z,1.35
2019-03-26T07:39:51.170Z,1.60
2019-03-26T07:42:29.067Z,3.02
2019-03-26T07:45:04.443Z,3.40
2019-03-26T07:47:39.811Z,8.55
2019-03-26T07:50:17.994Z,6.67
2019-03-26T07:52:56.299Z,4.78
2019-03-26T07:55:32.476Z,2.98
2019-03-26T07:58:11.495Z,2.35
2019-03-26T08:00:49.514Z,1.95
2019-03-26T08:03:29.473Z,2.15
2019-03-26T08:06:07.884Z,1.50
2019-03-26T08:08:43.609Z,1.67
2019-03-26T08:11:21.548Z,1.87
2019-03-26T08:13:56.735Z,1.80
2019-03-26T08:16:37.447Z,1.50
2019-03-26T08:19:15.799Z,1.60
2019-03-26T08:21:53.855Z,1.80
2019-03-26T08:24:32.463Z,1.90
2019-03-26T08:27:10.555Z,1.95
2019-03-26T08:29:48.522Z,1.87
2019-03-26T08:32:23.860Z,1.92
2019-03-26T08:35:01.815Z,2.10
2019-03-26T08:37:39.904Z,1.65
2019-03-26T08:40:18.385Z,2.08
2019-03-26T08:42:56.467Z,2.20
2019-03-26T08:45:31.875Z,1.82
2019-03-26T08:48:09.763Z,1.92
2019-03-26T08:50:48.097Z,2.00
2019-03-26T08:53:27.405Z,1.95
2019-03-26T08:56:06.835Z,1.80
2019-03-26T08:58:42.799Z,1.77
2019-03-26T09:01:18.209Z,1.75
2019-03-26T09:03:56.215Z,3.52
2019-03-26T09:06:34.330Z,2.22
2019-03-26T09:09:11.442Z,2.00
2019-03-26T09:11:49.495Z,2.08
2019-03-26T09:14:24.878Z,1.60
2019-03-26T09:17:03.004Z,1.87
2019-03-26T09:19:41.078Z,2.00
2019-03-26T09:22:19.501Z,1.82
2019-03-26T09:24:58.745Z,1.60
2019-03-26T09:27:36.788Z,1.55
2019-03-26T09:30:16.161Z,1.32
2019-03-26T09:32:55.043Z,1.35
2019-03-26T09:35:34.034Z,1.25
2019-03-26T09:38:15.217Z,1.55
2019-03-26T09:40:53.418Z,1.80
2019-03-26T09:43:31.834Z,1.80
2019-03-26T09:46:10.603Z,1.65
2019-03-26T09:48:46.927Z,1.30
2019-03-26T09:51:30.173Z,1.27
2019-03-26T09:54:05.747Z,1.30
2019-03-26T09:56:44.322Z,1.30
2019-03-26T09:59:22.795Z,1.50
2019-03-26T10:02:01.328Z,1.10
2019-03-26T10:04:37.015Z,1.40
2019-03-26T10:07:21.353Z,1.47
2019-03-26T10:09:59.571Z,1.77
2019-03-26T10:12:38.371Z,1.50
2019-03-26T10:15:17.171Z,1.40
2019-03-26T10:17:55.487Z,1.40
2019-03-26T10:20:31.004Z,1.15
2019-03-26T10:23:09.704Z,1.65
2019-03-26T10:25:54.692Z,1.20
2019-03-26T10:28:33.231Z,1.30
2019-03-26T10:31:11.684Z,1.22
2019-03-26T10:33:50.274Z,1.47
2019-03-26T10:36:41.590Z,1.40
2019-03-26T10:39:19.996Z,1.77
2019-03-26T10:41:58.414Z,1.60
2019-03-26T10:44:36.941Z,1.37
2019-03-26T10:47:12.878Z,2.00
2019-03-26T10:49:52.009Z,1.60
2019-03-26T10:52:31.650Z,1.77
2019-03-26T10:55:09.089Z,1.60
2019-03-26T10:57:50.039Z,1.60
2019-03-26T11:00:28.092Z,1.47
2019-03-26T11:03:06.557Z,1.42
2019-03-26T11:05:44.758Z,1.70
2019-03-26T11:08:23.201Z,1.57
2019-03-26T11:11:01.583Z,1.60
2019-03-26T11:13:39.671Z,1.32
2019-03-26T11:16:19.063Z,1.42
2019-03-26T11:18:57.180Z,1.47
2019-03-26T11:21:35.576Z,1.37
2019-03-26T11:24:12.606Z,1.57
2019-03-26T11:26:47.870Z,1.50
2019-03-26T11:29:26.454Z,1.70
2019-03-26T11:32:04.580Z,1.55
2019-03-26T11:34:42.682Z,2.00
2019-03-26T11:37:21.902Z,1.60
2019-03-26T11:39:57.870Z,1.72
2019-03-26T11:42:36.558Z,1.95
2019-03-26T11:45:15.373Z,2.05
2019-03-26T11:47:53.641Z,1.70
2019-03-26T11:50:31.786Z,1.42
2019-03-26T11:53:09.777Z,1.32
2019-03-26T11:55:48.245Z,1.70
2019-03-26T11:58:30.569Z,1.62
2019-03-26T12:01:02.801Z,1.70
2019-03-26T12:03:38.743Z,1.85
2019-03-26T12:06:16.651Z,1.67
2019-03-26T12:08:55.894Z,1.65
2019-03-26T12:11:33.922Z,1.30
2019-03-26T12:14:09.605Z,1.42
2019-03-26T12:16:44.652Z,1.47
2019-03-26T12:19:22.497Z,1.50
2019-03-26T12:22:00.521Z,1.32
2019-03-26T12:24:36.089Z,1.52
2019-03-26T12:27:11.279Z,1.50
2019-03-26T12:29:46.400Z,1.80
2019-03-26T12:32:24.530Z,1.70
2019-03-26T12:35:00.039Z,1.50
2019-03-26T12:37:37.947Z,1.42
2019-03-26T12:40:13.247Z,1.37
2019-03-26T12:42:48.352Z,1.42
2019-03-26T12:45:26.179Z,2.00
2019-03-26T12:48:04.527Z,2.00
2019-03-26T12:50:39.827Z,2.10
2019-03-26T12:53:15.046Z,1.60
2019-03-26T12:55:53.161Z,1.80
2019-03-26T12:58:32.720Z,1.70
2019-03-26T13:01:10.260Z,1.92
2019-03-26T13:03:48.368Z,1.72
2019-03-26T13:06:45.875Z,1.62
2019-03-26T13:09:23.915Z,1.70
2019-03-26T13:11:59.083Z,1.60
2019-03-26T13:14:37.123Z,1.45
2019-03-26T13:17:15.811Z,1.85
2019-03-26T13:19:54.091Z,1.67
2019-03-26T13:22:32.117Z,1.60
2019-03-26T13:25:10.707Z,1.65
2019-03-26T13:27:49.053Z,1.50
2019-03-26T13:30:27.046Z,1.50
2019-03-26T13:33:07.032Z,1.77
2019-03-26T13:35:45.056Z,1.55
2019-03-26T13:38:23.315Z,1.50
2019-03-26T13:40:58.687Z,1.60
2019-03-26T13:43:36.993Z,1.45
2019-03-26T13:46:14.989Z,1.47
2019-03-26T13:48:53.245Z,1.30
2019-03-26T13:51:31.310Z,1.32
2019-03-26T13:54:09.257Z,1.25
2019-03-26T13:56:44.592Z,1.57
2019-03-26T13:59:22.543Z,1.37
2019-03-26T14:02:00.457Z,1.27
2019-03-26T14:04:38.553Z,1.40
2019-03-26T14:07:16.609Z,1.40
2019-03-26T14:09:54.505Z,1.50
2019-03-26T14:12:32.607Z,1.20
2019-03-26T14:15:10.810Z,1.20
2019-03-26T14:17:49.389Z,3.35
2019-03-26T14:20:27.688Z,1.67
2019-03-26T14:23:05.666Z,1.65
2019-03-26T14:25:43.717Z,1.45
2019-03-26T14:28:21.933Z,1.45
2019-03-26T14:30:57.189Z,1.25
2019-03-26T14:33:35.695Z,1.15
2019-03-26T14:36:13.994Z,1.20
2019-03-26T14:38:57.232Z,1.20
2019-03-26T14:41:35.326Z,1.00
2019-03-26T14:44:13.246Z,1.35
2019-03-26T14:46:51.331Z,1.20
2019-03-26T14:49:29.877Z,1.42
2019-03-26T14:52:05.107Z,1.12
2019-03-26T14:54:42.949Z,1.37
2019-03-26T14:57:21.325Z,1.30
2019-03-26T14:59:59.208Z,1.35
2019-03-26T15:02:34.476Z,1.55
2019-03-26T15:05:12.967Z,1.17
2019-03-26T15:07:50.990Z,1.10
2019-03-26T15:10:29.335Z,1.20
2019-03-26T15:13:07.249Z,1.35
2019-03-26T15:15:45.547Z,1.20
2019-03-26T15:18:24.939Z,1.22
2019-03-26T15:21:05.078Z,1.40
2019-03-26T15:23:43.348Z,1.30
2019-03-26T15:26:22.332Z,1.55
2019-03-26T15:29:01.279Z,2.55
2019-03-26T15:31:40.360Z,1.50
2019-03-26T15:34:21.574Z,2.25
2019-03-26T15:37:01.543Z,1.50
2019-03-26T15:39:41.215Z,1.35
2019-03-26T15:42:20.446Z,1.70
2019-03-26T15:44:59.710Z,1.50
2019-03-26T15:47:38.115Z,1.15
2019-03-26T15:50:17.911Z,1.40
2019-03-26T15:52:55.865Z,1.40
2019-03-26T15:55:33.807Z,1.30
2019-03-26T15:58:12.112Z,1.70
2019-03-26T16:00:50.473Z,1.82
2019-03-26T16:03:28.499Z,1.62
2019-03-26T16:06:06.577Z,1.40
2019-03-26T16:08:46.371Z,1.50
2019-03-26T16:11:35.780Z,2.90
2019-03-26T16:14:05.572Z,1.67
2019-03-26T16:16:43.665Z,1.77
2019-03-26T16:19:32.214Z,1.75
2019-03-26T16:22:00.749Z,1.50
2019-03-26T16:24:38.743Z,1.62
2019-03-26T16:27:16.870Z,1.45
2019-03-26T16:29:55.556Z,1.95
2019-03-26T16:32:31.983Z,1.95
2019-03-26T16:35:10.387Z,2.00
2019-03-26T16:37:48.365Z,1.80
2019-03-26T16:40:26.403Z,1.80
2019-03-26T16:43:04.320Z,1.90
2019-03-26T16:45:42.485Z,1.67
2019-03-26T16:48:20.517Z,1.90
2019-03-26T16:50:58.728Z,1.80
2019-03-26T16:53:36.932Z,1.90
2019-03-26T16:56:14.873Z,1.90
2019-03-26T16:58:52.914Z,1.75
2019-03-26T17:01:31.273Z,2.00
2019-03-26T17:04:12.116Z,1.80
2019-03-26T17:06:50.191Z,1.95
2019-03-26T17:09:28.272Z,1.65
2019-03-26T17:12:06.941Z,1.70
2019-03-26T17:14:44.996Z,1.80
2019-03-26T17:17:20.204Z,2.00
2019-03-26T17:19:58.223Z,1.75
2019-03-26T17:22:36.294Z,2.08
2019-03-26T17:25:14.994Z,2.25
2019-03-26T17:27:53.116Z,2.27
2019-03-26T17:30:28.459Z,2.00
2019-03-26T17:33:03.535Z,2.35
2019-03-26T17:35:41.401Z,2.10
2019-03-26T17:38:19.669Z,2.30
2019-03-26T17:40:57.856Z,2.47
2019-03-26T17:43:35.965Z,2.35
2019-03-26T17:46:14.174Z,2.20
2019-03-26T17:48:49.363Z,2.15
2019-03-26T17:51:27.326Z,2.33
2019-03-26T17:54:05.916Z,2.30
2019-03-26T17:56:47.115Z,2.00
2019-03-26T17:59:22.995Z,2.00
2019-03-26T18:04:57.630Z,2.00
2019-03-26T18:07:33.403Z,2.20
2019-03-26T18:10:08.714Z,2.45
2019-03-26T18:12:46.555Z,2.37
2019-03-26T18:15:20.245Z,2.17
2019-03-26T18:17:59.018Z,2.22
2019-03-26T18:20:34.428Z,2.10
2019-03-26T18:23:09.567Z,2.33
2019-03-26T18:25:44.892Z,2.30
2019-03-26T18:28:20.074Z,2.33
2019-03-26T18:30:55.432Z,2.05
2019-03-26T18:33:33.395Z,2.17
2019-03-26T18:36:09.478Z,2.10
2019-03-26T18:38:44.712Z,1.98
2019-03-26T18:41:19.985Z,2.30
2019-03-26T18:43:55.198Z,2.33
2019-03-26T18:46:31.079Z,2.25
2019-03-26T18:49:06.229Z,2.27
2019-03-26T18:51:41.932Z,2.15
2019-03-26T18:54:23.073Z,2.37
2019-03-26T18:56:59.318Z,2.22
2019-03-26T18:59:35.626Z,2.40
2019-03-26T19:02:10.821Z,2.00
2019-03-26T19:04:46.548Z,2.00
2019-03-26T19:07:21.741Z,2.37
2019-03-26T19:09:58.208Z,2.00
2019-03-26T19:12:33.599Z,2.30
2019-03-26T19:15:08.873Z,2.65
2019-03-26T19:17:44.224Z,7.92
2019-03-26T19:20:19.834Z,3.17
2019-03-26T19:22:55.137Z,3.30
2019-03-26T19:25:30.357Z,3.20
2019-03-26T19:28:05.846Z,2.58
2019-03-26T19:30:41.014Z,3.70
2019-03-26T19:33:16.812Z,3.33
2019-03-26T19:35:52.953Z,3.83
2019-03-26T19:38:28.132Z,4.37
2019-03-26T19:41:06.184Z,4.33
2019-03-26T19:43:41.601Z,3.70
2019-03-26T19:46:16.819Z,2.98
2019-03-26T19:48:53.752Z,3.10
2019-03-26T19:51:29.244Z,3.08
2019-03-26T19:54:04.665Z,3.95
2019-03-26T19:56:40.052Z,3.90
2019-03-26T19:59:18.084Z,3.22
2019-03-26T20:01:53.341Z,2.58
2019-03-26T20:04:31.390Z,2.70
2019-03-26T20:07:07.949Z,3.00
2019-03-26T20:09:44.179Z,2.90
2019-03-26T20:12:20.456Z,2.30
2019-03-26T20:14:55.891Z,2.50
2019-03-26T20:17:31.951Z,2.52
2019-03-26T20:20:07.633Z,2.80
2019-03-26T20:22:42.810Z,2.95
2019-03-26T20:25:18.347Z,2.60
2019-03-26T20:27:54.806Z,2.77
2019-03-26T20:30:30.070Z,2.98
2019-03-26T20:33:05.274Z,2.58
2019-03-26T20:35:40.736Z,2.87
2019-03-26T20:38:16.316Z,2.77
2019-03-26T20:40:51.857Z,2.80
2019-03-26T20:43:36.698Z,2.90
2019-03-26T20:46:04.094Z,2.87
2019-03-26T20:48:39.370Z,3.12
2019-03-26T20:51:14.927Z,3.02
2019-03-26T20:53:50.119Z,2.92
2019-03-26T20:56:26.723Z,3.33
2019-03-26T20:59:02.244Z,2.92
2019-03-26T21:01:37.832Z,2.90
2019-03-26T21:04:13.531Z,3.00
2019-03-26T21:06:49.064Z,3.92
2019-03-26T21:09:25.244Z,3.20
2019-03-26T21:12:03.241Z,2.92
2019-03-26T21:14:38.913Z,2.70
2019-03-26T21:17:14.148Z,2.55
2019-03-26T21:19:50.148Z,2.67
2019-03-26T21:22:25.964Z,2.98
2019-03-26T21:25:02.788Z,2.92
2019-03-26T21:27:38.364Z,2.52
2019-03-26T21:30:15.736Z,2.60
2019-03-26T21:32:52.848Z,2.67
2019-03-26T21:35:28.972Z,2.35
2019-03-26T21:38:04.587Z,2.42
2019-03-26T21:40:41.216Z,2.70
2019-03-26T21:43:18.865Z,3.05
2019-03-26T21:45:54.076Z,2.62
2019-03-26T21:48:29.814Z,2.75
2019-03-26T21:51:05.170Z,2.70
2019-03-26T21:53:41.352Z,2.75
2019-03-26T21:56:17.205Z,2.70
2019-03-26T21:58:56.277Z,2.60
2019-03-26T22:01:32.262Z,2.70
2019-03-26T22:04:09.149Z,2.60
2019-03-26T22:06:45.232Z,2.75
2019-03-26T22:09:20.632Z,2.60
2019-03-26T22:11:58.686Z,3.27
2019-03-26T22:14:37.902Z,3.47
2019-03-26T22:17:16.123Z,3.30
2019-03-26T22:19:55.040Z,3.72
2019-03-26T22:22:31.035Z,3.00
2019-03-26T22:25:09.139Z,3.20
2019-03-26T22:27:46.990Z,3.52
2019-03-26T22:30:26.725Z,4.17
2019-03-26T22:33:05.538Z,3.85
2019-03-26T22:35:45.663Z,3.52
2019-03-26T22:38:21.590Z,3.65
2019-03-26T22:41:00.722Z,3.75
2019-03-26T22:43:39.829Z,3.90
2019-03-26T22:46:18.120Z,4.00
2019-03-26T22:48:56.781Z,4.58
2019-03-26T22:51:35.384Z,4.40
2019-03-26T22:54:13.786Z,4.45
2019-03-26T22:56:52.193Z,4.35
2019-03-26T22:59:31.115Z,4.53
2019-03-26T23:02:09.836Z,4.58
2019-03-26T23:04:45.263Z,5.00
2019-03-26T23:07:20.876Z,4.40
2019-03-26T23:09:56.899Z,4.05
2019-03-26T23:12:32.335Z,3.92
2019-03-26T23:15:16.557Z,3.85
2019-03-26T23:17:52.491Z,4.00
2019-03-26T23:20:28.025Z,3.92
2019-03-26T23:23:04.253Z,3.80
2019-03-26T23:25:39.770Z,4.85
2019-03-26T23:28:15.579Z,5.28
2019-03-26T23:30:56.158Z,4.90
2019-03-26T23:33:33.188Z,4.50
2019-03-26T23:36:08.962Z,4.45
2019-03-26T23:38:44.668Z,3.98
2019-03-26T23:41:21.519Z,3.92
2019-03-26T23:43:58.646Z,4.95
2019-03-26T23:46:36.898Z,4.00
2019-03-26T23:49:12.370Z,3.70
2019-03-26T23:51:47.689Z,4.95
2019-03-26T23:54:23.477Z,4.42
2019-03-26T23:56:58.849Z,4.17
2019-03-26T23:59:34.543Z,4.60
